This is the latest recevied weather packets stored in our database for station/object KJ4UBX-11. If no packets are shown the sender has not sent any weather packets the latest 10 day(s).
| Time | Temp. | Humidity | Pressure | Rain* | Wind** | Luminosity | Snow |
|---|---|---|---|---|---|---|---|
| 1777313247 | 18.33° C | 39% | 1023.3 hPa | - | - | - | - |
| 1777312666 | 20° C | 38% | 1023.3 hPa | - | - | - | - |
| 1777312083 | 18.89° C | 36% | 1023.3 hPa | - | - | - | - |
| 1777311499 | 18.89° C | 35% | 1023.4 hPa | - | - | - | - |
| 1777310917 | 19.44° C | 36% | 1023.4 hPa | - | - | - | - |
| 1777310335 | 20° C | 36% | 1023.3 hPa | - | - | - | - |
| 1777309754 | 20.56° C | 34% | 1023.4 hPa | - | - | - | - |
| 1777309171 | 20.56° C | 34% | 1023.6 hPa | - | - | - | - |
| 1777308589 | 20.56° C | 35% | 1023.6 hPa | - | - | - | - |
| 1777308006 | 22.22° C | 34% | 1023.6 hPa | - | - | - | - |
| 1777307424 | 22.22° C | 31% | 1023.7 hPa | - | - | - | - |
| 1777306843 | 23.89° C | 32% | 1023.8 hPa | - | - | - | - |
| 1777306261 | 25° C | 29% | 1023.8 hPa | - | - | - | - |
| 1777305680 | 26.11° C | 29% | 1023.8 hPa | - | - | - | - |
| 1777305106 | 30° C | 24% | 1023.8 hPa | - | - | - | - |
| 1777304541 | 36.67° C | 17% | 1023.9 hPa | - | - | - | - |
| 1777303955 | 40.56° C | 15% | 1024 hPa | - | - | - | - |
| 1777303373 | 40.56° C | 15% | 1024.1 hPa | - | - | - | - |
| 1777302782 | 36.11° C | 18% | 1024.1 hPa | - | - | - | - |
| 1777302200 | 35° C | 19% | 1024.2 hPa | - | - | - | - |
| 1777301621 | 36.67° C | 18% | 1024.3 hPa | - | - | - | - |
| 1777301037 | 36.67° C | 17% | 1024.3 hPa | - | - | - | - |
* Rain since midnight (hover to see other rain measurements)
** Current wind speed in m/s (hover to see current wind gust speed)